Terminal Aerodrome Forecast
Issued by NWS

Home | Current Version | Previous Version | Text Only | Print | Product List | Glossary On
Versions: 1 2 3 4 5 6 7 8 9 10 11 12 13
000
FTUS42 TJSJ 240523
TAFJBQ
TAF
TJBQ 240523Z 2406/2506 11008KT P6SM FEW060
     FM241300 08013KT P6SM FEW030 SCT050
     FM242300 11008KT P6SM FEW060
      AMD NOT SKED TIL 241100=

USA.gov is the U.S. government's official web portal to all federal, state and local government web resources and services.